»·PEaware :: N790DL KSMX-KRNM

N790DL :: KSMX-KRNM

FLIGHT INFORMATION

Flight Status: Arrived
Operator: Privately registered:
United States
More flights under this callsign
Pilot: Keith B. (30325)
Aircraft: BEECH AIRCRAFT DEBONAIR BONANZA
(BE33)
More flights by this aircraft type
Origin: KSMX Santa Maria Pub/Capt Hancock
United States
Destination: KRNM Ramona
United States
More flights between these airports :: More routes between these airports
Route: KSMX GVO SXC ROBNN KRNM
File this flight plan on PilotEdge
Remarks: KSMX to KRNM
Altitude:
(Current/Filed)
7,500ft
Speed:
(Current/Filed)
150kts
Departed: 25-Oct-20 11:42 AM
Arrived: 25-Oct-20 01:09 PM
Distance/Time
Traveled:
209nm/1:27
Distance/Time
To Go:
Arrived

Flight Plot

Page will automatically refresh every two minutes.

Flight plan parsing failed; only flown route is shown


Map Options




Map Legend


Flown Route
Filed Route
Departure Airport
Arrival Airport
Navaid (VOR, NDB)
Fix

Horizontal Profiles

Position Reports

Time Latitude Longitude Heading Altitude Ground
Speed
25-Oct-20 11:26 34.895638 -120.444784 314 264ft 0kts
25-Oct-20 11:27 34.895638 -120.444784 314 264ft 0kts
25-Oct-20 11:28 34.895638 -120.444784 314 264ft 0kts
25-Oct-20 11:29 34.895638 -120.444784 314 264ft 0kts
25-Oct-20 11:30 34.895638 -120.444784 313 264ft 0kts
25-Oct-20 11:31 34.895638 -120.444784 313 264ft 0kts
25-Oct-20 11:32 34.895638 -120.444784 313 264ft 0kts
25-Oct-20 11:33 34.895638 -120.444784 313 264ft 0kts
25-Oct-20 11:34 34.895638 -120.444784 313 264ft 0kts
25-Oct-20 11:35 34.895638 -120.444784 313 264ft 0kts
25-Oct-20 11:36 34.895638 -120.444784 313 264ft 0kts
25-Oct-20 11:37 34.895683 -120.444957 255 264ft 4kts
25-Oct-20 11:38 34.893560 -120.445212 182 264ft 3kts
25-Oct-20 11:39 34.893527 -120.445214 182 264ft 0kts
25-Oct-20 11:40 34.893015 -120.445333 218 264ft 13kts
25-Oct-20 11:41 34.907325 -120.462827 314 755ft 107kts
25-Oct-20 11:42 34.894039 -120.486166 167 1901ft 119kts
25-Oct-20 11:43 34.865037 -120.469527 140 3063ft 117kts
25-Oct-20 11:44 34.847553 -120.439118 119 4205ft 103kts
25-Oct-20 11:45 34.834355 -120.407627 106 5072ft 107kts
25-Oct-20 11:46 34.818725 -120.377092 134 5961ft 107kts
25-Oct-20 11:47 34.796725 -120.353460 139 6775ft 105kts
25-Oct-20 11:48 34.772617 -120.329306 140 7425ft 119kts
25-Oct-20 11:49 34.742630 -120.299611 140 7525ft 157kts
25-Oct-20 11:50 34.707087 -120.265697 141 7689ft 164kts
25-Oct-20 11:51 34.671656 -120.230572 140 7872ft 165kts
25-Oct-20 11:52 34.635730 -120.194843 140 8023ft 167kts
25-Oct-20 11:53 34.599293 -120.158768 140 7892ft 179kts
25-Oct-20 11:54 34.560215 -120.119295 139 7491ft 179kts
25-Oct-20 11:55 34.523684 -120.080986 128 7495ft 169kts
25-Oct-20 11:56 34.494909 -120.036526 129 7482ft 166kts
25-Oct-20 11:57 34.465578 -119.993217 130 7478ft 165kts
25-Oct-20 11:58 34.436379 -119.950144 131 7469ft 165kts
25-Oct-20 11:59 34.407185 -119.907132 131 7462ft 165kts
25-Oct-20 12:00 34.378060 -119.864296 130 7460ft 164kts
25-Oct-20 12:01 34.348906 -119.821419 130 7458ft 164kts
25-Oct-20 12:02 34.319689 -119.778550 130 7454ft 164kts
25-Oct-20 12:03 34.290538 -119.735809 131 7453ft 164kts
25-Oct-20 12:04 34.261324 -119.693007 131 7447ft 165kts
25-Oct-20 12:05 34.231970 -119.650101 130 7446ft 166kts
25-Oct-20 12:06 34.202566 -119.607119 129 7450ft 166kts
25-Oct-20 12:07 34.173302 -119.563937 128 7448ft 166kts
25-Oct-20 12:08 34.143885 -119.521031 128 7443ft 165kts
25-Oct-20 12:09 34.114594 -119.478420 128 7440ft 164kts
25-Oct-20 12:10 34.084823 -119.436531 128 7438ft 164kts
25-Oct-20 12:11 34.055627 -119.394212 128 7432ft 164kts
25-Oct-20 12:12 34.026500 -119.351976 128 7431ft 164kts
25-Oct-20 12:13 33.997606 -119.310112 129 7474ft 162kts
25-Oct-20 12:14 33.968789 -119.268393 129 7480ft 162kts
25-Oct-20 12:15 33.939845 -119.226594 129 7475ft 163kts
25-Oct-20 12:16 33.910719 -119.184532 129 7473ft 163kts
25-Oct-20 12:17 33.881810 -119.142837 129 7514ft 161kts
25-Oct-20 12:18 33.852983 -119.101340 129 7513ft 162kts
25-Oct-20 12:19 33.823964 -119.059566 129 7509ft 163kts
25-Oct-20 12:20 33.794750 -119.017613 129 7506ft 163kts
25-Oct-20 12:21 33.765616 -118.975801 129 7499ft 163kts
25-Oct-20 12:22 33.736343 -118.933802 129 7488ft 164kts
25-Oct-20 12:23 33.706972 -118.891777 129 7493ft 163kts
25-Oct-20 12:24 33.678368 -118.849422 128 7494ft 164kts
25-Oct-20 12:25 33.648945 -118.807314 129 7496ft 164kts
25-Oct-20 12:26 33.619503 -118.765320 129 7497ft 164kts
25-Oct-20 12:27 33.590076 -118.723347 129 7501ft 165kts
25-Oct-20 12:28 33.560440 -118.681194 129 7499ft 165kts
25-Oct-20 12:29 33.530703 -118.638905 129 7495ft 165kts
25-Oct-20 12:30 33.500978 -118.596664 129 7490ft 166kts
25-Oct-20 12:31 33.471185 -118.554428 129 7489ft 166kts
25-Oct-20 12:32 33.441337 -118.512113 129 7484ft 166kts
25-Oct-20 12:33 33.411545 -118.469966 129 7482ft 166kts
25-Oct-20 12:34 33.381669 -118.427802 129 7477ft 166kts
25-Oct-20 12:35 33.369847 -118.376263 92 7471ft 164kts
25-Oct-20 12:36 33.363731 -118.322525 97 7511ft 162kts
25-Oct-20 12:37 33.356949 -118.268745 97 7360ft 165kts
25-Oct-20 12:38 33.349977 -118.213637 97 6972ft 168kts
25-Oct-20 12:39 33.342785 -118.158340 97 6545ft 169kts
25-Oct-20 12:40 33.335660 -118.102318 97 6101ft 171kts
25-Oct-20 12:42 33.327841 -118.045586 97 5634ft 173kts
25-Oct-20 12:43 33.320767 -117.990450 97 5481ft 158kts
25-Oct-20 12:44 33.314375 -117.940657 97 5475ft 147kts
25-Oct-20 12:45 33.308265 -117.893194 97 5472ft 142kts
25-Oct-20 12:46 33.302261 -117.846905 97 5463ft 140kts
25-Oct-20 12:47 33.296315 -117.801085 97 5461ft 139kts
25-Oct-20 12:48 33.290403 -117.755310 97 5466ft 144kts
25-Oct-20 12:49 33.283702 -117.704330 97 5456ft 161kts
25-Oct-20 12:50 33.277249 -117.650259 97 5451ft 166kts
25-Oct-20 12:51 33.270049 -117.595351 97 5447ft 167kts
25-Oct-20 12:52 33.262760 -117.540092 97 5442ft 168kts
25-Oct-20 12:53 33.255043 -117.482079 98 4996ft 180kts
25-Oct-20 12:54 33.247274 -117.423290 97 4463ft 178kts
25-Oct-20 12:55 33.239465 -117.364785 97 3915ft 178kts
25-Oct-20 12:56 33.231835 -117.307710 98 3593ft 167kts
25-Oct-20 12:57 33.224681 -117.254427 98 3499ft 156kts
25-Oct-20 12:58 33.217943 -117.204561 98 3499ft 149kts
25-Oct-20 12:58 33.212488 -117.164169 98 3495ft 147kts
25-Oct-20 13:00 33.204741 -117.107988 103 3405ft 150kts
25-Oct-20 13:00 33.182005 -117.076342 139 3037ft 156kts
25-Oct-20 13:02 33.148002 -117.038489 135 2764ft 125kts
25-Oct-20 13:02 33.127456 -117.014813 138 2793ft 141kts
25-Oct-20 13:03 33.095370 -116.978244 138 2759ft 172kts
25-Oct-20 13:04 33.064772 -116.945106 140 2425ft 130kts
25-Oct-20 13:05 33.054911 -116.911989 92 2334ft 115kts
25-Oct-20 13:06 33.049113 -116.877972 178 2362ft 111kts
25-Oct-20 13:07 33.036968 -116.900833 279 1614ft 91kts
25-Oct-20 13:08 33.039826 -116.919688 297 1386ft 17kts
25-Oct-20 13:09 33.040466 -116.919369 100 1387ft 8kts
25-Oct-20 13:10 33.039892 -116.915500 99 1391ft 13kts
25-Oct-20 13:11 33.039215 -116.910935 99 1396ft 18kts
25-Oct-20 13:12 33.038452 -116.907470 183 1398ft 3kts
25-Oct-20 13:13 33.036852 -116.909085 185 1394ft 10kts
25-Oct-20 13:14 33.036375 -116.909134 51 1388ft 7kts
25-Oct-20 13:15 33.036588 -116.908997 279 1391ft 0kts
25-Oct-20 13:16 33.036588 -116.908997 279 1391ft 0kts
25-Oct-20 13:17 33.036582 -116.908958 278 1390ft 0kts
25-Oct-20 13:18 33.036580 -116.908945 277 1390ft 0kts
25-Oct-20 13:19 33.036580 -116.908945 277 1390ft 0kts
25-Oct-20 13:20 33.036580 -116.908945 277 1390ft 0kts

Navigation Log

Ident Type
Flight plan parsing failed, navigation log unavailable